sensor_id;sensor_type;location;lat;lon;timestamp;temperature;humidity
37956;DHT22;23776;51.592;7.180;2022-12-10T00:01:50;0.70;1.30
37956;DHT22;23776;51.592;7.180;2022-12-10T00:04:16;0.80;2.20
37956;DHT22;23776;51.592;7.180;2022-12-10T00:06:42;0.80;2.60
37956;DHT22;23776;51.592;7.180;2022-12-10T00:09:11;0.80;1.00
37956;DHT22;23776;51.592;7.180;2022-12-10T00:11:38;0.70;1.00
37956;DHT22;23776;51.592;7.180;2022-12-10T00:14:04;0.70;1.00
37956;DHT22;23776;51.592;7.180;2022-12-10T00:16:29;0.60;1.00
37956;DHT22;23776;51.592;7.180;2022-12-10T00:18:59;0.50;3.80
37956;DHT22;23776;51.592;7.180;2022-12-10T00:21:30;0.50;1.90
37956;DHT22;23776;51.592;7.180;2022-12-10T00:23:57;0.60;4.50
37956;DHT22;23776;51.592;7.180;2022-12-10T00:26:31;0.50;3.90
37956;DHT22;23776;51.592;7.180;2022-12-10T00:28:57;0.60;6.80
37956;DHT22;23776;51.592;7.180;2022-12-10T00:31:27;0.50;4.40
37956;DHT22;23776;51.592;7.180;2022-12-10T00:33:55;0.50;3.90
37956;DHT22;23776;51.592;7.180;2022-12-10T00:36:32;0.40;6.00
37956;DHT22;23776;51.592;7.180;2022-12-10T00:38:58;0.40;6.00
37956;DHT22;23776;51.592;7.180;2022-12-10T00:41:24;0.40;4.30
37956;DHT22;23776;51.592;7.180;2022-12-10T00:43:50;0.50;3.20
37956;DHT22;23776;51.592;7.180;2022-12-10T00:46:17;0.50;4.30
37956;DHT22;23776;51.592;7.180;2022-12-10T00:48:43;0.40;3.00
37956;DHT22;23776;51.592;7.180;2022-12-10T00:53:39;0.40;5.70
37956;DHT22;23776;51.592;7.180;2022-12-10T00:56:07;0.40;6.90
37956;DHT22;23776;51.592;7.180;2022-12-10T00:58:34;0.40;6.30
37956;DHT22;23776;51.592;7.180;2022-12-10T01:01:18;0.30;4.60
37956;DHT22;23776;51.592;7.180;2022-12-10T01:03:45;0.30;7.90
37956;DHT22;23776;51.592;7.180;2022-12-10T01:06:16;0.40;7.60
37956;DHT22;23776;51.592;7.180;2022-12-10T01:08:43;0.40;6.90
37956;DHT22;23776;51.592;7.180;2022-12-10T01:11:10;0.40;8.20
37956;DHT22;23776;51.592;7.180;2022-12-10T01:13:36;0.40;6.10
37956;DHT22;23776;51.592;7.180;2022-12-10T01:16:04;0.30;6.70
37956;DHT22;23776;51.592;7.180;2022-12-10T01:18:30;0.30;6.30
37956;DHT22;23776;51.592;7.180;2022-12-10T01:21:04;0.30;7.20
37956;DHT22;23776;51.592;7.180;2022-12-10T01:23:35;0.30;6.50
37956;DHT22;23776;51.592;7.180;2022-12-10T01:26:13;0.30;6.20
37956;DHT22;23776;51.592;7.180;2022-12-10T01:28:40;0.30;6.70
37956;DHT22;23776;51.592;7.180;2022-12-10T01:31:12;0.40;7.20
37956;DHT22;23776;51.592;7.180;2022-12-10T01:33:38;0.40;5.90
37956;DHT22;23776;51.592;7.180;2022-12-10T01:36:10;0.50;7.20
37956;DHT22;23776;51.592;7.180;2022-12-10T01:38:36;0.60;8.60
37956;DHT22;23776;51.592;7.180;2022-12-10T01:41:03;0.60;8.20
37956;DHT22;23776;51.592;7.180;2022-12-10T01:46:15;0.80;6.60
37956;DHT22;23776;51.592;7.180;2022-12-10T01:48:41;0.70;5.70
37956;DHT22;23776;51.592;7.180;2022-12-10T01:51:07;0.80;4.30
37956;DHT22;23776;51.592;7.180;2022-12-10T01:53:33;0.70;4.10
37956;DHT22;23776;51.592;7.180;2022-12-10T01:55:59;0.80;5.60
37956;DHT22;23776;51.592;7.180;2022-12-10T01:58:25;0.80;4.20
37956;DHT22;23776;51.592;7.180;2022-12-10T02:03:47;0.80;4.00
37956;DHT22;23776;51.592;7.180;2022-12-10T02:06:23;0.80;3.30
37956;DHT22;23776;51.592;7.180;2022-12-10T02:11:33;0.80;2.20
37956;DHT22;23776;51.592;7.180;2022-12-10T02:14:05;0.90;2.40
37956;DHT22;23776;51.592;7.180;2022-12-10T02:16:44;0.90;1.90
37956;DHT22;23776;51.592;7.180;2022-12-10T02:19:31;0.90;2.50
37956;DHT22;23776;51.592;7.180;2022-12-10T02:22:02;0.90;2.60
37956;DHT22;23776;51.592;7.180;2022-12-10T02:24:33;0.90;2.00
37956;DHT22;23776;51.592;7.180;2022-12-10T02:27:14;0.90;2.20
37956;DHT22;23776;51.592;7.180;2022-12-10T02:29:43;0.90;1.00
37956;DHT22;23776;51.592;7.180;2022-12-10T02:32:12;0.90;1.90
37956;DHT22;23776;51.592;7.180;2022-12-10T02:34:43;0.90;1.00
37956;DHT22;23776;51.592;7.180;2022-12-10T02:37:14;1.00;3.50
37956;DHT22;23776;51.592;7.180;2022-12-10T02:39:45;1.10;3.70
37956;DHT22;23776;51.592;7.180;2022-12-10T02:42:12;1.10;1.20
37956;DHT22;23776;51.592;7.180;2022-12-10T02:44:40;1.10;1.00
37956;DHT22;23776;51.592;7.180;2022-12-10T02:47:08;2.10;1.00
37956;DHT22;23776;51.592;7.180;2022-12-10T02:49:34;1.10;1.00
37956;DHT22;23776;51.592;7.180;2022-12-10T02:52:16;1.10;1.00
37956;DHT22;23776;51.592;7.180;2022-12-10T02:54:48;1.00;1.00
37956;DHT22;23776;51.592;7.180;2022-12-10T03:00:01;1.00;1.00
37956;DHT22;23776;51.592;7.180;2022-12-10T03:04:56;1.10;1.00
37956;DHT22;23776;51.592;7.180;2022-12-10T03:07:28;1.10;1.00
37956;DHT22;23776;51.592;7.180;2022-12-10T03:10:02;1.10;1.00
37956;DHT22;23776;51.592;7.180;2022-12-10T03:12:35;1.10;1.00
37956;DHT22;23776;51.592;7.180;2022-12-10T03:15:07;1.10;1.00
37956;DHT22;23776;51.592;7.180;2022-12-10T03:17:34;1.20;1.00
37956;DHT22;23776;51.592;7.180;2022-12-10T03:20:00;1.20;1.00
37956;DHT22;23776;51.592;7.180;2022-12-10T03:22:28;1.20;1.00
37956;DHT22;23776;51.592;7.180;2022-12-10T03:24:55;1.30;1.00
37956;DHT22;23776;51.592;7.180;2022-12-10T03:27:23;1.30;1.00
37956;DHT22;23776;51.592;7.180;2022-12-10T03:29:54;1.20;1.00
37956;DHT22;23776;51.592;7.180;2022-12-10T03:32:24;1.30;1.00
37956;DHT22;23776;51.592;7.180;2022-12-10T03:34:52;1.30;1.00
37956;DHT22;23776;51.592;7.180;2022-12-10T03:37:18;1.30;1.00
37956;DHT22;23776;51.592;7.180;2022-12-10T03:39:45;1.30;1.00
37956;DHT22;23776;51.592;7.180;2022-12-10T03:42:11;1.30;1.00
37956;DHT22;23776;51.592;7.180;2022-12-10T03:44:38;1.30;1.00
37956;DHT22;23776;51.592;7.180;2022-12-10T03:47:07;1.30;1.00
37956;DHT22;23776;51.592;7.180;2022-12-10T03:49:34;1.30;1.00
37956;DHT22;23776;51.592;7.180;2022-12-10T03:51:59;1.30;1.00
37956;DHT22;23776;51.592;7.180;2022-12-10T03:54:25;1.30;1.00
37956;DHT22;23776;51.592;7.180;2022-12-10T03:56:52;1.40;1.00
37956;DHT22;23776;51.592;7.180;2022-12-10T03:59:18;1.40;1.00
37956;DHT22;23776;51.592;7.180;2022-12-10T04:01:44;1.30;1.00
37956;DHT22;23776;51.592;7.180;2022-12-10T04:04:10;1.30;1.00
37956;DHT22;23776;51.592;7.180;2022-12-10T04:06:38;1.30;1.00
37956;DHT22;23776;51.592;7.180;2022-12-10T04:09:04;1.30;1.00
37956;DHT22;23776;51.592;7.180;2022-12-10T04:11:30;1.20;1.00
37956;DHT22;23776;51.592;7.180;2022-12-10T04:13:55;1.20;1.00
37956;DHT22;23776;51.592;7.180;2022-12-10T04:16:40;1.20;1.00
37956;DHT22;23776;51.592;7.180;2022-12-10T04:19:09;1.10;1.00
37956;DHT22;23776;51.592;7.180;2022-12-10T04:21:36;1.10;1.00
37956;DHT22;23776;51.592;7.180;2022-12-10T04:24:23;1.10;1.00
37956;DHT22;23776;51.592;7.180;2022-12-10T04:27:33;1.20;1.00
37956;DHT22;23776;51.592;7.180;2022-12-10T04:29:59;1.30;1.00
37956;DHT22;23776;51.592;7.180;2022-12-10T04:32:26;1.30;1.00
37956;DHT22;23776;51.592;7.180;2022-12-10T04:34:52;1.30;1.00
37956;DHT22;23776;51.592;7.180;2022-12-10T04:37:18;1.20;1.00
37956;DHT22;23776;51.592;7.180;2022-12-10T04:39:44;1.20;1.00
37956;DHT22;23776;51.592;7.180;2022-12-10T04:42:10;1.20;1.00
37956;DHT22;23776;51.592;7.180;2022-12-10T04:44:36;1.20;1.00
37956;DHT22;23776;51.592;7.180;2022-12-10T04:47:07;1.00;1.00
37956;DHT22;23776;51.592;7.180;2022-12-10T04:49:33;0.90;1.00
37956;DHT22;23776;51.592;7.180;2022-12-10T04:51:59;0.80;1.00
37956;DHT22;23776;51.592;7.180;2022-12-10T04:54:25;0.70;1.00
37956;DHT22;23776;51.592;7.180;2022-12-10T04:56:51;0.80;1.00
37956;DHT22;23776;51.592;7.180;2022-12-10T04:59:17;0.80;1.00
37956;DHT22;23776;51.592;7.180;2022-12-10T05:01:43;0.70;1.00
37956;DHT22;23776;51.592;7.180;2022-12-10T05:04:12;0.60;1.00
37956;DHT22;23776;51.592;7.180;2022-12-10T05:06:37;0.60;1.00
37956;DHT22;23776;51.592;7.180;2022-12-10T05:09:04;0.60;1.00
37956;DHT22;23776;51.592;7.180;2022-12-10T05:11:31;0.50;1.00
37956;DHT22;23776;51.592;7.180;2022-12-10T05:13:58;0.40;1.00
37956;DHT22;23776;51.592;7.180;2022-12-10T05:16:25;0.30;1.00
37956;DHT22;23776;51.592;7.180;2022-12-10T05:18:52;0.30;1.00
37956;DHT22;23776;51.592;7.180;2022-12-10T05:21:19;0.20;1.00
37956;DHT22;23776;51.592;7.180;2022-12-10T05:23:48;0.10;1.00
37956;DHT22;23776;51.592;7.180;2022-12-10T05:26:16;0.40;1.00
37956;DHT22;23776;51.592;7.180;2022-12-10T05:28:47;-0.10;1.00
37956;DHT22;23776;51.592;7.180;2022-12-10T05:31:14;-0.10;1.00
37956;DHT22;23776;51.592;7.180;2022-12-10T05:33:40;-0.10;1.00
37956;DHT22;23776;51.592;7.180;2022-12-10T05:36:06;-0.20;1.00
37956;DHT22;23776;51.592;7.180;2022-12-10T05:38:33;-0.20;1.00
37956;DHT22;23776;51.592;7.180;2022-12-10T05:41:06;-0.20;1.00
37956;DHT22;23776;51.592;7.180;2022-12-10T05:43:33;-0.20;1.00
37956;DHT22;23776;51.592;7.180;2022-12-10T05:46:03;-0.30;1.00
37956;DHT22;23776;51.592;7.180;2022-12-10T05:48:30;-0.30;1.00
37956;DHT22;23776;51.592;7.180;2022-12-10T05:50:56;-0.30;1.00
37956;DHT22;23776;51.592;7.180;2022-12-10T05:53:23;-0.30;1.40
37956;DHT22;23776;51.592;7.180;2022-12-10T05:55:48;-0.30;1.00
37956;DHT22;23776;51.592;7.180;2022-12-10T05:58:14;-0.40;1.00
37956;DHT22;23776;51.592;7.180;2022-12-10T06:00:40;-0.40;1.00
37956;DHT22;23776;51.592;7.180;2022-12-10T06:03:08;-0.50;1.00
37956;DHT22;23776;51.592;7.180;2022-12-10T06:05:38;-0.50;1.00
37956;DHT22;23776;51.592;7.180;2022-12-10T06:08:04;-0.50;1.00
37956;DHT22;23776;51.592;7.180;2022-12-10T06:10:30;-0.60;1.00
37956;DHT22;23776;51.592;7.180;2022-12-10T06:12:55;-0.60;1.00
37956;DHT22;23776;51.592;7.180;2022-12-10T06:15:21;-0.60;1.00
37956;DHT22;23776;51.592;7.180;2022-12-10T06:17:46;-0.60;1.00
37956;DHT22;23776;51.592;7.180;2022-12-10T06:20:12;-0.60;1.00
37956;DHT22;23776;51.592;7.180;2022-12-10T06:22:38;-0.60;1.00
37956;DHT22;23776;51.592;7.180;2022-12-10T06:25:03;-0.60;1.00
37956;DHT22;23776;51.592;7.180;2022-12-10T06:27:31;-0.60;1.00
37956;DHT22;23776;51.592;7.180;2022-12-10T06:29:57;-0.60;1.00
37956;DHT22;23776;51.592;7.180;2022-12-10T06:32:23;0.00;1.00
37956;DHT22;23776;51.592;7.180;2022-12-10T06:34:48;-0.70;1.00
37956;DHT22;23776;51.592;7.180;2022-12-10T06:37:14;-0.80;1.00
37956;DHT22;23776;51.592;7.180;2022-12-10T06:39:39;-0.80;1.00
37956;DHT22;23776;51.592;7.180;2022-12-10T06:42:05;-0.90;1.00
37956;DHT22;23776;51.592;7.180;2022-12-10T06:44:31;-1.00;1.00
37956;DHT22;23776;51.592;7.180;2022-12-10T06:46:57;-0.90;1.00
37956;DHT22;23776;51.592;7.180;2022-12-10T06:49:22;-1.00;1.60
37956;DHT22;23776;51.592;7.180;2022-12-10T06:51:48;-0.90;1.00
37956;DHT22;23776;51.592;7.180;2022-12-10T06:54:14;-1.00;1.00
37956;DHT22;23776;51.592;7.180;2022-12-10T06:56:39;-0.90;1.00
37956;DHT22;23776;51.592;7.180;2022-12-10T06:59:05;-0.90;1.00
37956;DHT22;23776;51.592;7.180;2022-12-10T07:01:34;-1.00;1.00
37956;DHT22;23776;51.592;7.180;2022-12-10T07:04:00;-1.10;1.00
37956;DHT22;23776;51.592;7.180;2022-12-10T07:06:27;-1.20;1.00
37956;DHT22;23776;51.592;7.180;2022-12-10T07:08:54;-1.20;1.00
37956;DHT22;23776;51.592;7.180;2022-12-10T07:11:22;-1.20;1.00
37956;DHT22;23776;51.592;7.180;2022-12-10T07:13:48;-1.20;1.00
37956;DHT22;23776;51.592;7.180;2022-12-10T07:18:44;-1.20;1.90
37956;DHT22;23776;51.592;7.180;2022-12-10T07:21:27;-1.10;1.70
37956;DHT22;23776;51.592;7.180;2022-12-10T07:23:55;-0.50;3.90
37956;DHT22;23776;51.592;7.180;2022-12-10T07:26:24;-1.20;1.80
37956;DHT22;23776;51.592;7.180;2022-12-10T07:28:50;-1.20;1.80
37956;DHT22;23776;51.592;7.180;2022-12-10T07:31:16;-1.20;1.00
37956;DHT22;23776;51.592;7.180;2022-12-10T07:33:42;-1.20;1.00
37956;DHT22;23776;51.592;7.180;2022-12-10T07:36:09;-1.10;1.00
37956;DHT22;23776;51.592;7.180;2022-12-10T07:38:35;-1.20;1.00
37956;DHT22;23776;51.592;7.180;2022-12-10T07:41:07;-1.10;1.00
37956;DHT22;23776;51.592;7.180;2022-12-10T07:43:38;-1.00;1.00
37956;DHT22;23776;51.592;7.180;2022-12-10T07:46:09;-1.10;1.00
37956;DHT22;23776;51.592;7.180;2022-12-10T07:48:36;-1.00;3.90
37956;DHT22;23776;51.592;7.180;2022-12-10T07:51:03;-0.80;2.30
37956;DHT22;23776;51.592;7.180;2022-12-10T07:53:29;-0.80;3.90
37956;DHT22;23776;51.592;7.180;2022-12-10T07:55:54;-0.70;7.20
37956;DHT22;23776;51.592;7.180;2022-12-10T07:58:20;-0.60;7.00
37956;DHT22;23776;51.592;7.180;2022-12-10T08:00:46;-0.70;5.40
37956;DHT22;23776;51.592;7.180;2022-12-10T08:03:11;-0.60;4.50
37956;DHT22;23776;51.592;7.180;2022-12-10T08:05:37;-0.60;3.90
37956;DHT22;23776;51.592;7.180;2022-12-10T08:08:03;-0.60;3.80
37956;DHT22;23776;51.592;7.180;2022-12-10T08:10:28;-0.60;3.70
37956;DHT22;23776;51.592;7.180;2022-12-10T08:12:54;-0.70;8.20
37956;DHT22;23776;51.592;7.180;2022-12-10T08:15:19;-0.60;10.70
37956;DHT22;23776;51.592;7.180;2022-12-10T08:17:45;-0.60;8.20
37956;DHT22;23776;51.592;7.180;2022-12-10T08:20:11;-0.60;8.20
37956;DHT22;23776;51.592;7.180;2022-12-10T08:22:36;-0.50;8.40
37956;DHT22;23776;51.592;7.180;2022-12-10T08:25:03;-0.40;6.70
37956;DHT22;23776;51.592;7.180;2022-12-10T08:27:28;-0.40;5.40
37956;DHT22;23776;51.592;7.180;2022-12-10T08:29:54;-0.30;2.70
37956;DHT22;23776;51.592;7.180;2022-12-10T08:32:19;-0.30;3.60
37956;DHT22;23776;51.592;7.180;2022-12-10T08:34:45;-0.30;5.70
37956;DHT22;23776;51.592;7.180;2022-12-10T08:37:11;-0.20;4.10
37956;DHT22;23776;51.592;7.180;2022-12-10T08:39:36;-0.10;6.80
37956;DHT22;23776;51.592;7.180;2022-12-10T08:42:02;-0.20;7.00
37956;DHT22;23776;51.592;7.180;2022-12-10T08:44:27;0.00;7.40
37956;DHT22;23776;51.592;7.180;2022-12-10T08:46:53;0.00;4.60
37956;DHT22;23776;51.592;7.180;2022-12-10T08:49:19;0.00;3.60
37956;DHT22;23776;51.592;7.180;2022-12-10T08:51:44;0.00;4.10
37956;DHT22;23776;51.592;7.180;2022-12-10T08:54:10;0.10;3.70
37956;DHT22;23776;51.592;7.180;2022-12-10T08:56:36;0.20;1.00
37956;DHT22;23776;51.592;7.180;2022-12-10T08:59:02;0.10;1.00
37956;DHT22;23776;51.592;7.180;2022-12-10T09:01:27;0.10;1.40
37956;DHT22;23776;51.592;7.180;2022-12-10T09:03:53;0.20;3.90
37956;DHT22;23776;51.592;7.180;2022-12-10T09:06:21;0.20;4.10
37956;DHT22;23776;51.592;7.180;2022-12-10T09:08:49;0.20;3.00
37956;DHT22;23776;51.592;7.180;2022-12-10T09:11:24;0.10;3.80
37956;DHT22;23776;51.592;7.180;2022-12-10T09:13:50;0.20;4.20
37956;DHT22;23776;51.592;7.180;2022-12-10T09:16:16;0.30;1.00
37956;DHT22;23776;51.592;7.180;2022-12-10T09:18:42;0.40;1.00
37956;DHT22;23776;51.592;7.180;2022-12-10T09:21:10;0.50;1.00
37956;DHT22;23776;51.592;7.180;2022-12-10T09:23:38;0.50;1.00
37956;DHT22;23776;51.592;7.180;2022-12-10T09:26:12;0.50;1.00
37956;DHT22;23776;51.592;7.180;2022-12-10T09:28:39;0.50;1.00
37956;DHT22;23776;51.592;7.180;2022-12-10T09:31:05;0.60;1.00
37956;DHT22;23776;51.592;7.180;2022-12-10T09:33:32;0.60;1.00
37956;DHT22;23776;51.592;7.180;2022-12-10T09:35:58;0.60;1.00
37956;DHT22;23776;51.592;7.180;2022-12-10T09:38:24;0.60;1.00
37956;DHT22;23776;51.592;7.180;2022-12-10T09:41:01;0.70;1.00
37956;DHT22;23776;51.592;7.180;2022-12-10T09:46:18;0.80;1.00
37956;DHT22;23776;51.592;7.180;2022-12-10T09:49:02;0.90;1.00
37956;DHT22;23776;51.592;7.180;2022-12-10T09:51:35;0.90;1.00
37956;DHT22;23776;51.592;7.180;2022-12-10T09:54:03;1.00;1.00
37956;DHT22;23776;51.592;7.180;2022-12-10T09:56:33;1.10;1.00
37956;DHT22;23776;51.592;7.180;2022-12-10T09:59:18;1.10;1.00
37956;DHT22;23776;51.592;7.180;2022-12-10T10:01:47;1.10;1.00
37956;DHT22;23776;51.592;7.180;2022-12-10T10:04:16;1.20;1.00
37956;DHT22;23776;51.592;7.180;2022-12-10T10:06:42;1.20;1.00
37956;DHT22;23776;51.592;7.180;2022-12-10T10:09:12;1.20;1.00
37956;DHT22;23776;51.592;7.180;2022-12-10T10:11:39;1.10;1.00
37956;DHT22;23776;51.592;7.180;2022-12-10T10:14:24;1.10;1.00
37956;DHT22;23776;51.592;7.180;2022-12-10T10:17:03;0.80;1.00
37956;DHT22;23776;51.592;7.180;2022-12-10T10:19:34;0.90;1.00
37956;DHT22;23776;51.592;7.180;2022-12-10T10:22:03;0.90;1.00
37956;DHT22;23776;51.592;7.180;2022-12-10T10:24:41;0.80;1.00
37956;DHT22;23776;51.592;7.180;2022-12-10T10:27:28;0.60;1.00
37956;DHT22;23776;51.592;7.180;2022-12-10T10:29:57;0.70;1.00
37956;DHT22;23776;51.592;7.180;2022-12-10T10:32:26;0.80;1.00
37956;DHT22;23776;51.592;7.180;2022-12-10T10:34:55;0.80;1.00
37956;DHT22;23776;51.592;7.180;2022-12-10T10:37:27;0.80;1.00
37956;DHT22;23776;51.592;7.180;2022-12-10T10:39:55;0.80;1.00
37956;DHT22;23776;51.592;7.180;2022-12-10T10:47:46;0.90;1.00
37956;DHT22;23776;51.592;7.180;2022-12-10T10:50:23;0.90;1.00
37956;DHT22;23776;51.592;7.180;2022-12-10T10:52:50;0.80;1.00
37956;DHT22;23776;51.592;7.180;2022-12-10T10:55:31;0.60;1.00
37956;DHT22;23776;51.592;7.180;2022-12-10T10:58:00;0.60;1.00
37956;DHT22;23776;51.592;7.180;2022-12-10T11:00:26;0.50;1.00
37956;DHT22;23776;51.592;7.180;2022-12-10T11:02:52;0.50;1.00
37956;DHT22;23776;51.592;7.180;2022-12-10T11:05:30;0.60;1.00
37956;DHT22;23776;51.592;7.180;2022-12-10T11:08:17;0.70;1.00
37956;DHT22;23776;51.592;7.180;2022-12-10T11:10:52;0.80;1.00
37956;DHT22;23776;51.592;7.180;2022-12-10T11:13:25;0.80;1.00
37956;DHT22;23776;51.592;7.180;2022-12-10T11:16:02;0.80;1.00
37956;DHT22;23776;51.592;7.180;2022-12-10T11:18:37;0.90;1.00
37956;DHT22;23776;51.592;7.180;2022-12-10T11:23:39;0.90;1.00
37956;DHT22;23776;51.592;7.180;2022-12-10T11:26:25;0.90;1.00
37956;DHT22;23776;51.592;7.180;2022-12-10T11:37:44;0.90;1.00
37956;DHT22;23776;51.592;7.180;2022-12-10T11:55:01;1.10;1.00
37956;DHT22;23776;51.592;7.180;2022-12-10T11:57:49;1.00;1.00
37956;DHT22;23776;51.592;7.180;2022-12-10T12:00:26;1.00;1.00
37956;DHT22;23776;51.592;7.180;2022-12-10T12:03:19;0.90;1.00
37956;DHT22;23776;51.592;7.180;2022-12-10T12:13:59;1.00;1.00
37956;DHT22;23776;51.592;7.180;2022-12-10T12:16:42;1.10;1.00
37956;DHT22;23776;51.592;7.180;2022-12-10T12:19:14;1.20;1.00
37956;DHT22;23776;51.592;7.180;2022-12-10T12:21:42;1.20;1.00
37956;DHT22;23776;51.592;7.180;2022-12-10T12:24:25;1.20;1.00
37956;DHT22;23776;51.592;7.180;2022-12-10T12:30:22;0.70;1.00
37956;DHT22;23776;51.592;7.180;2022-12-10T12:33:15;0.60;1.00
37956;DHT22;23776;51.592;7.180;2022-12-10T12:36:06;0.70;1.00
37956;DHT22;23776;51.592;7.180;2022-12-10T12:38:45;0.80;1.00
37956;DHT22;23776;51.592;7.180;2022-12-10T12:44:28;0.90;1.00
37956;DHT22;23776;51.592;7.180;2022-12-10T12:46:56;1.00;1.00
37956;DHT22;23776;51.592;7.180;2022-12-10T12:49:28;1.00;1.00
37956;DHT22;23776;51.592;7.180;2022-12-10T12:52:27;1.00;1.00
37956;DHT22;23776;51.592;7.180;2022-12-10T12:54:56;1.00;1.00
37956;DHT22;23776;51.592;7.180;2022-12-10T12:57:34;0.70;1.00
37956;DHT22;23776;51.592;7.180;2022-12-10T13:00:04;0.80;1.00
37956;DHT22;23776;51.592;7.180;2022-12-10T13:04:59;1.00;1.00
37956;DHT22;23776;51.592;7.180;2022-12-10T13:07:27;1.00;1.00
37956;DHT22;23776;51.592;7.180;2022-12-10T13:12:49;1.10;1.00
37956;DHT22;23776;51.592;7.180;2022-12-10T13:15:21;1.10;1.00
37956;DHT22;23776;51.592;7.180;2022-12-10T13:18:22;1.10;1.00
37956;DHT22;23776;51.592;7.180;2022-12-10T13:24:08;1.20;1.00
37956;DHT22;23776;51.592;7.180;2022-12-10T13:26:32;1.20;1.00
37956;DHT22;23776;51.592;7.180;2022-12-10T13:29:23;1.20;1.00
37956;DHT22;23776;51.592;7.180;2022-12-10T13:32:13;1.60;1.00
37956;DHT22;23776;51.592;7.180;2022-12-10T13:34:39;1.20;1.00
37956;DHT22;23776;51.592;7.180;2022-12-10T13:37:18;1.20;1.00
37956;DHT22;23776;51.592;7.180;2022-12-10T13:40:13;1.20;1.00
37956;DHT22;23776;51.592;7.180;2022-12-10T13:42:43;1.20;1.00
37956;DHT22;23776;51.592;7.180;2022-12-10T13:45:32;1.20;1.00
37956;DHT22;23776;51.592;7.180;2022-12-10T13:50:48;1.30;1.00
37956;DHT22;23776;51.592;7.180;2022-12-10T13:58:41;1.40;1.00
37956;DHT22;23776;51.592;7.180;2022-12-10T14:01:42;1.30;1.00
37956;DHT22;23776;51.592;7.180;2022-12-10T14:06:47;1.10;1.00
37956;DHT22;23776;51.592;7.180;2022-12-10T14:09:30;1.10;1.00
37956;DHT22;23776;51.592;7.180;2022-12-10T14:12:10;1.10;1.00
37956;DHT22;23776;51.592;7.180;2022-12-10T14:14:42;1.10;1.00
37956;DHT22;23776;51.592;7.180;2022-12-10T14:17:19;1.10;1.00
37956;DHT22;23776;51.592;7.180;2022-12-10T14:19:48;1.20;1.00
37956;DHT22;23776;51.592;7.180;2022-12-10T14:22:18;1.20;1.00
37956;DHT22;23776;51.592;7.180;2022-12-10T14:24:49;1.20;1.00
37956;DHT22;23776;51.592;7.180;2022-12-10T14:27:17;1.20;1.00
37956;DHT22;23776;51.592;7.180;2022-12-10T14:29:48;1.20;1.00
37956;DHT22;23776;51.592;7.180;2022-12-10T14:32:16;1.20;1.00
37956;DHT22;23776;51.592;7.180;2022-12-10T14:34:43;1.20;1.00
37956;DHT22;23776;51.592;7.180;2022-12-10T14:37:13;1.20;1.00
37956;DHT22;23776;51.592;7.180;2022-12-10T14:39:40;1.10;1.00
37956;DHT22;23776;51.592;7.180;2022-12-10T14:42:06;1.10;1.00
37956;DHT22;23776;51.592;7.180;2022-12-10T14:44:35;1.10;1.00
37956;DHT22;23776;51.592;7.180;2022-12-10T14:47:37;1.10;1.00
37956;DHT22;23776;51.592;7.180;2022-12-10T14:49:56;1.10;1.00
37956;DHT22;23776;51.592;7.180;2022-12-10T14:52:24;1.10;1.00
37956;DHT22;23776;51.592;7.180;2022-12-10T14:54:50;1.10;1.00
37956;DHT22;23776;51.592;7.180;2022-12-10T14:57:31;1.10;1.00
37956;DHT22;23776;51.592;7.180;2022-12-10T15:00:05;1.10;1.00
37956;DHT22;23776;51.592;7.180;2022-12-10T15:02:33;1.10;1.00
37956;DHT22;23776;51.592;7.180;2022-12-10T15:04:59;1.10;1.00
37956;DHT22;23776;51.592;7.180;2022-12-10T15:07:30;1.10;1.00
37956;DHT22;23776;51.592;7.180;2022-12-10T15:10:00;1.10;1.00
37956;DHT22;23776;51.592;7.180;2022-12-10T15:12:52;1.10;1.00
37956;DHT22;23776;51.592;7.180;2022-12-10T15:15:23;1.10;1.00
37956;DHT22;23776;51.592;7.180;2022-12-10T15:20:52;1.10;1.00
37956;DHT22;23776;51.592;7.180;2022-12-10T15:23:23;1.10;1.00
37956;DHT22;23776;51.592;7.180;2022-12-10T15:25:57;1.00;1.00
37956;DHT22;23776;51.592;7.180;2022-12-10T15:28:26;1.00;1.00
37956;DHT22;23776;51.592;7.180;2022-12-10T15:30:59;1.10;1.00
37956;DHT22;23776;51.592;7.180;2022-12-10T15:33:42;1.00;1.00
37956;DHT22;23776;51.592;7.180;2022-12-10T15:36:28;1.00;1.00
37956;DHT22;23776;51.592;7.180;2022-12-10T15:38:54;1.00;1.00
37956;DHT22;23776;51.592;7.180;2022-12-10T15:41:46;1.00;1.00
37956;DHT22;23776;51.592;7.180;2022-12-10T15:49:27;1.00;1.00
37956;DHT22;23776;51.592;7.180;2022-12-10T15:51:53;1.00;1.00
37956;DHT22;23776;51.592;7.180;2022-12-10T15:57:17;1.10;1.00
37956;DHT22;23776;51.592;7.180;2022-12-10T15:59:49;1.10;1.00
37956;DHT22;23776;51.592;7.180;2022-12-10T16:02:41;1.10;1.00
37956;DHT22;23776;51.592;7.180;2022-12-10T16:05:23;1.20;1.00
37956;DHT22;23776;51.592;7.180;2022-12-10T16:07:51;1.20;1.00
37956;DHT22;23776;51.592;7.180;2022-12-10T16:10:19;1.20;1.00
37956;DHT22;23776;51.592;7.180;2022-12-10T16:12:48;1.20;1.00
37956;DHT22;23776;51.592;7.180;2022-12-10T16:15:20;1.20;1.00
37956;DHT22;23776;51.592;7.180;2022-12-10T16:17:47;1.20;1.00
37956;DHT22;23776;51.592;7.180;2022-12-10T16:20:26;1.20;1.00
37956;DHT22;23776;51.592;7.180;2022-12-10T16:22:53;1.20;1.00
37956;DHT22;23776;51.592;7.180;2022-12-10T16:25:20;1.10;1.00
37956;DHT22;23776;51.592;7.180;2022-12-10T16:27:46;1.10;1.00
37956;DHT22;23776;51.592;7.180;2022-12-10T16:30:21;1.10;1.00
37956;DHT22;23776;51.592;7.180;2022-12-10T16:32:48;1.10;1.00
37956;DHT22;23776;51.592;7.180;2022-12-10T16:35:15;1.10;1.00
37956;DHT22;23776;51.592;7.180;2022-12-10T16:37:42;1.10;1.00
37956;DHT22;23776;51.592;7.180;2022-12-10T16:40:08;1.10;1.00
37956;DHT22;23776;51.592;7.180;2022-12-10T16:42:34;1.10;1.00
37956;DHT22;23776;51.592;7.180;2022-12-10T16:45:00;1.10;1.00
37956;DHT22;23776;51.592;7.180;2022-12-10T16:47:25;1.10;1.00
37956;DHT22;23776;51.592;7.180;2022-12-10T16:49:51;1.10;1.00
37956;DHT22;23776;51.592;7.180;2022-12-10T16:52:17;1.20;1.00
37956;DHT22;23776;51.592;7.180;2022-12-10T16:54:43;1.20;1.00
37956;DHT22;23776;51.592;7.180;2022-12-10T16:57:12;1.20;1.00
37956;DHT22;23776;51.592;7.180;2022-12-10T16:59:39;1.20;1.00
37956;DHT22;23776;51.592;7.180;2022-12-10T17:02:15;1.20;1.00
37956;DHT22;23776;51.592;7.180;2022-12-10T17:04:42;1.20;1.00
37956;DHT22;23776;51.592;7.180;2022-12-10T17:07:12;1.30;1.00
37956;DHT22;23776;51.592;7.180;2022-12-10T17:09:38;1.30;1.00
37956;DHT22;23776;51.592;7.180;2022-12-10T17:12:05;1.30;1.00
37956;DHT22;23776;51.592;7.180;2022-12-10T17:14:42;1.30;1.00
37956;DHT22;23776;51.592;7.180;2022-12-10T17:17:13;1.20;1.00
37956;DHT22;23776;51.592;7.180;2022-12-10T17:19:41;1.20;1.00
37956;DHT22;23776;51.592;7.180;2022-12-10T17:22:07;1.20;1.00
37956;DHT22;23776;51.592;7.180;2022-12-10T17:24:34;1.20;1.00
37956;DHT22;23776;51.592;7.180;2022-12-10T17:27:06;1.20;1.00
37956;DHT22;23776;51.592;7.180;2022-12-10T17:29:35;1.20;1.00
37956;DHT22;23776;51.592;7.180;2022-12-10T17:32:03;0.60;1.00
37956;DHT22;23776;51.592;7.180;2022-12-10T17:34:29;1.20;1.00
37956;DHT22;23776;51.592;7.180;2022-12-10T17:36:54;1.80;1.00
37956;DHT22;23776;51.592;7.180;2022-12-10T17:39:21;1.30;1.00
37956;DHT22;23776;51.592;7.180;2022-12-10T17:41:50;1.40;1.00
37956;DHT22;23776;51.592;7.180;2022-12-10T17:44:16;1.20;1.00
37956;DHT22;23776;51.592;7.180;2022-12-10T17:46:42;1.20;1.00
37956;DHT22;23776;51.592;7.180;2022-12-10T17:49:12;1.20;1.00
37956;DHT22;23776;51.592;7.180;2022-12-10T17:51:38;1.20;1.00
37956;DHT22;23776;51.592;7.180;2022-12-10T17:54:04;1.30;1.00
37956;DHT22;23776;51.592;7.180;2022-12-10T17:56:29;1.20;1.00